Time,TemperatureF,DewpointF,PressureIn,WindDirection,WindDirectionDegrees,WindSpeedMPH,WindSpeedGustMPH,Humidity,HourlyPrecipIn,Conditions,Clouds,dailyrainin,SoftwareType,DateUTC
2013-02-15 00:00:00,34.3,24.5,30.00,North,-999,0.0,1.6,67,0.00,,,0.00,pywws,2013-02-15 05:00:00,
2013-02-15 00:03:00,34.3,24.5,30.00,North,-999,0.0,0.0,67,0.00,,,0.00,pywws,2013-02-15 05:03:00,
2013-02-15 00:06:00,34.2,24.4,30.00,North,-999,0.0,0.0,67,0.00,,,0.00,pywws,2013-02-15 05:06:00,
2013-02-15 00:12:00,34.0,24.2,30.00,North,-999,0.0,0.7,67,0.00,,,0.00,pywws,2013-02-15 05:12:00,
2013-02-15 00:17:00,33.8,24.4,30.00,North,-999,0.0,0.7,68,0.00,,,0.00,pywws,2013-02-15 05:17:00,
2013-02-15 00:23:00,33.6,24.6,30.00,North,-999,0.0,0.7,69,0.00,,,0.00,pywws,2013-02-15 05:23:00,
2013-02-15 00:28:00,34.0,24.5,30.00,SE,135,0.7,1.6,68,0.00,,,0.00,pywws,2013-02-15 05:28:00,
2013-02-15 00:34:00,34.0,24.5,30.00,South,180,1.6,2.2,68,0.00,,,0.00,pywws,2013-02-15 05:34:00,
2013-02-15 00:40:00,34.0,24.5,30.00,North,-999,0.0,1.6,68,0.00,,,0.00,pywws,2013-02-15 05:40:00,
2013-02-15 00:45:00,34.0,24.5,30.00,South,180,0.7,1.6,68,0.00,,,0.00,pywws,2013-02-15 05:45:00,
2013-02-15 00:51:00,34.0,24.2,30.00,North,-999,0.0,0.7,67,0.00,,,0.00,pywws,2013-02-15 05:51:00,
2013-02-15 00:56:00,34.3,24.5,30.00,North,-999,0.0,0.0,67,0.00,,,0.00,pywws,2013-02-15 05:56:00,
2013-02-15 01:02:00,34.3,24.5,30.00,North,-999,0.0,0.0,67,0.00,,,0.00,pywws,2013-02-15 06:02:00,
2013-02-15 01:08:00,34.5,24.4,30.00,NW,315,0.7,1.6,66,0.00,,,0.00,pywws,2013-02-15 06:08:00,
2013-02-15 01:13:00,34.9,24.3,29.99,WSW,248,0.7,1.6,65,0.00,,,0.00,pywws,2013-02-15 06:13:00,
2013-02-15 01:19:00,34.9,24.3,30.00,North,-999,0.0,0.0,65,0.00,,,0.00,pywws,2013-02-15 06:19:00,
2013-02-15 01:25:00,34.9,24.0,29.99,North,-999,0.0,0.7,64,0.00,,,0.00,pywws,2013-02-15 06:25:00,
2013-02-15 01:30:00,34.9,24.0,29.99,North,-999,0.0,0.0,64,0.00,,,0.00,pywws,2013-02-15 06:30:00,
2013-02-15 01:36:00,34.9,24.0,29.99,North,-999,0.0,0.0,64,0.00,,,0.00,pywws,2013-02-15 06:36:00,
2013-02-15 01:41:00,35.1,23.8,29.99,East,90,0.7,1.6,63,0.00,,,0.00,pywws,2013-02-15 06:41:00,
2013-02-15 01:47:00,35.2,23.9,29.99,North,-999,0.0,0.7,63,0.00,,,0.00,pywws,2013-02-15 06:47:00,
2013-02-15 01:52:00,35.1,23.8,29.99,North,-999,0.0,0.7,63,0.00,,,0.00,pywws,2013-02-15 06:52:00,
2013-02-15 01:58:00,35.1,23.8,29.98,North,-999,0.0,0.0,63,0.00,,,0.00,pywws,2013-02-15 06:58:00,
2013-02-15 02:04:00,35.1,23.8,29.99,North,-999,0.0,3.1,63,0.00,,,0.00,pywws,2013-02-15 07:04:00,
2013-02-15 02:09:00,35.1,23.8,29.99,SW,225,0.7,2.2,63,0.00,,,0.00,pywws,2013-02-15 07:09:00,
2013-02-15 02:15:00,35.2,23.9,29.99,East,90,0.7,1.6,63,0.00,,,0.00,pywws,2013-02-15 07:15:00,
2013-02-15 02:20:00,35.2,23.9,29.99,North,-999,0.0,0.7,63,0.00,,,0.00,pywws,2013-02-15 07:20:00,
2013-02-15 02:26:00,35.4,23.7,29.98,North,-999,0.0,0.7,62,0.00,,,0.00,pywws,2013-02-15 07:26:00,
2013-02-15 02:32:00,35.2,23.5,29.98,North,0,1.6,2.2,62,0.00,,,0.00,pywws,2013-02-15 07:32:00,
2013-02-15 02:37:00,35.4,23.7,29.98,NW,315,3.1,5.4,62,0.00,,,0.00,pywws,2013-02-15 07:37:00,
2013-02-15 02:43:00,35.6,23.5,29.98,North,-999,0.0,0.0,61,0.00,,,0.00,pywws,2013-02-15 07:43:00,
2013-02-15 02:48:00,35.6,23.5,29.98,West,270,1.6,2.2,61,0.00,,,0.00,pywws,2013-02-15 07:48:00,
2013-02-15 02:54:00,35.4,23.7,29.98,North,-999,0.0,1.6,62,0.00,,,0.00,pywws,2013-02-15 07:54:00,
2013-02-15 03:00:00,35.6,23.5,29.98,West,270,2.2,3.8,61,0.00,,,0.00,pywws,2013-02-15 08:00:00,
2013-02-15 03:05:00,35.8,23.7,29.98,SW,225,2.2,3.8,61,0.00,,,0.00,pywws,2013-02-15 08:05:00,
2013-02-15 03:11:00,36.0,23.8,29.98,West,270,2.2,3.8,61,0.00,,,0.00,pywws,2013-02-15 08:11:00,
2013-02-15 03:16:00,36.0,23.8,29.98,West,270,1.6,3.1,61,0.00,,,0.00,pywws,2013-02-15 08:16:00,
2013-02-15 03:22:00,35.8,23.7,29.98,WNW,292,2.2,3.8,61,0.00,,,0.00,pywws,2013-02-15 08:22:00,
2013-02-15 03:28:00,36.0,23.8,29.98,West,270,1.6,3.1,61,0.00,,,0.00,pywws,2013-02-15 08:28:00,
2013-02-15 03:33:00,36.0,23.8,29.97,North,0,1.6,3.1,61,0.00,,,0.00,pywws,2013-02-15 08:33:00,
2013-02-15 03:39:00,36.0,23.4,29.97,SW,225,0.7,2.2,60,0.00,,,0.00,pywws,2013-02-15 08:39:00,
2013-02-15 03:44:00,35.8,23.3,29.96,South,180,2.2,3.1,60,0.00,,,0.00,pywws,2013-02-15 08:44:00,
2013-02-15 03:50:00,35.4,23.7,29.98,NW,315,1.6,2.2,62,0.00,,,0.00,pywws,2013-02-15 08:50:00,
2013-02-15 03:56:00,35.2,23.5,29.98,West,270,3.1,6.0,62,0.00,,,0.00,pywws,2013-02-15 08:56:00,
2013-02-15 04:01:00,35.2,23.5,29.98,West,270,1.6,3.8,62,0.00,,,0.00,pywws,2013-02-15 09:01:00,
2013-02-15 04:07:00,35.1,23.4,29.98,West,270,2.2,4.5,62,0.00,,,0.00,pywws,2013-02-15 09:07:00,
2013-02-15 04:12:00,34.9,23.6,29.98,NW,315,0.7,2.2,63,0.00,,,0.00,pywws,2013-02-15 09:12:00,
2013-02-15 04:18:00,34.9,23.6,29.98,South,180,1.6,2.2,63,0.00,,,0.00,pywws,2013-02-15 09:18:00,
2013-02-15 04:24:00,34.7,23.4,29.98,NW,315,0.7,1.6,63,0.00,,,0.00,pywws,2013-02-15 09:24:00,
2013-02-15 04:29:00,34.5,23.2,29.98,West,270,1.6,3.1,63,0.00,,,0.00,pywws,2013-02-15 09:29:00,
2013-02-15 04:35:00,34.5,23.6,29.98,SW,225,3.1,5.4,64,0.00,,,0.00,pywws,2013-02-15 09:35:00,
2013-02-15 04:40:00,34.5,23.6,29.98,South,180,1.6,2.2,64,0.00,,,0.00,pywws,2013-02-15 09:40:00,
2013-02-15 04:46:00,34.5,23.6,29.98,South,180,3.8,6.0,64,0.00,,,0.00,pywws,2013-02-15 09:46:00,
2013-02-15 04:52:00,34.7,23.8,29.98,West,270,1.6,3.1,64,0.00,,,0.00,pywws,2013-02-15 09:52:00,
2013-02-15 04:57:00,34.3,23.4,29.98,West,270,1.6,3.1,64,0.00,,,0.00,pywws,2013-02-15 09:57:00,
2013-02-15 05:03:00,34.3,23.4,29.98,SW,225,0.7,1.6,64,0.00,,,0.00,pywws,2013-02-15 10:03:00,
2013-02-15 05:08:00,34.2,23.3,29.98,West,270,1.6,3.1,64,0.00,,,0.00,pywws,2013-02-15 10:08:00,
2013-02-15 05:14:00,34.2,23.6,29.98,SSW,202,1.6,2.2,65,0.00,,,0.00,pywws,2013-02-15 10:14:00,
2013-02-15 05:20:00,34.2,23.6,29.98,East,90,0.7,1.6,65,0.00,,,0.00,pywws,2013-02-15 10:20:00,
2013-02-15 05:25:00,34.0,23.8,29.98,SW,225,0.7,2.2,66,0.00,,,0.00,pywws,2013-02-15 10:25:00,
2013-02-15 05:31:00,34.0,23.8,29.98,SE,135,1.6,3.1,66,0.00,,,0.00,pywws,2013-02-15 10:31:00,
2013-02-15 05:36:00,33.8,23.7,29.98,NW,315,1.6,2.2,66,0.00,,,0.00,pywws,2013-02-15 10:36:00,
2013-02-15 05:42:00,33.8,23.7,29.98,North,-999,0.0,1.6,66,0.00,,,0.00,pywws,2013-02-15 10:42:00,
2013-02-15 05:48:00,33.8,24.0,29.97,North,-999,0.0,1.6,67,0.00,,,0.00,pywws,2013-02-15 10:48:00,
2013-02-15 05:53:00,33.6,24.2,29.98,NE,45,2.2,4.5,68,0.00,,,0.00,pywws,2013-02-15 10:53:00,
2013-02-15 05:59:00,33.8,24.0,29.98,South,180,1.6,3.1,67,0.00,,,0.00,pywws,2013-02-15 10:59:00,
2013-02-15 06:04:00,33.6,24.2,29.98,NW,315,1.6,2.2,68,0.00,,,0.00,pywws,2013-02-15 11:04:00,
2013-02-15 06:10:00,33.4,24.0,29.98,NW,315,0.7,2.2,68,0.00,,,0.00,pywws,2013-02-15 11:10:00,
2013-02-15 06:16:00,33.4,24.4,29.98,SE,135,0.7,2.2,69,0.00,,,0.00,pywws,2013-02-15 11:16:00,
2013-02-15 06:21:00,33.4,24.4,29.98,North,-999,0.0,1.6,69,0.00,,,0.00,pywws,2013-02-15 11:21:00,
2013-02-15 06:27:00,33.3,24.2,29.98,North,-999,0.0,0.7,69,0.00,,,0.00,pywws,2013-02-15 11:27:00,
2013-02-15 06:32:00,33.1,24.0,29.97,North,-999,0.0,1.6,69,0.00,,,0.00,pywws,2013-02-15 11:32:00,
2013-02-15 06:38:00,33.1,24.0,29.98,North,-999,0.0,0.0,69,0.00,,,0.00,pywws,2013-02-15 11:38:00,
2013-02-15 06:44:00,32.7,23.7,29.97,North,-999,0.0,0.0,69,0.00,,,0.00,pywws,2013-02-15 11:44:00,
2013-02-15 06:49:00,32.5,23.5,29.97,East,90,0.7,1.6,69,0.00,,,0.00,pywws,2013-02-15 11:49:00,
2013-02-15 06:55:00,32.5,23.9,29.97,North,-999,0.0,1.6,70,0.00,,,0.00,pywws,2013-02-15 11:55:00,
2013-02-15 07:01:00,32.5,23.9,29.97,North,-999,0.0,0.7,70,0.00,,,0.00,pywws,2013-02-15 12:01:00,
2013-02-15 07:06:00,32.5,23.9,29.98,North,-999,0.0,0.7,70,0.00,,,0.00,pywws,2013-02-15 12:06:00,
2013-02-15 07:12:00,32.5,24.2,29.98,SE,135,0.7,1.6,71,0.00,,,0.00,pywws,2013-02-15 12:12:00,
2013-02-15 07:17:00,32.7,24.4,29.98,South,180,0.7,1.6,71,0.00,,,0.00,pywws,2013-02-15 12:17:00,
2013-02-15 07:23:00,32.7,24.7,29.98,North,-999,0.0,0.7,72,0.00,,,0.00,pywws,2013-02-15 12:23:00,
2013-02-15 07:28:00,32.9,24.9,29.98,North,-999,0.0,0.7,72,0.00,,,0.00,pywws,2013-02-15 12:28:00,
2013-02-15 07:34:00,33.3,25.6,29.98,North,0,0.7,2.2,73,0.00,,,0.00,pywws,2013-02-15 12:34:00,
2013-02-15 07:40:00,33.6,25.9,29.98,SW,225,0.7,2.2,73,0.00,,,0.00,pywws,2013-02-15 12:40:00,
2013-02-15 07:45:00,34.0,25.9,29.98,SW,225,1.6,2.2,72,0.00,,,0.00,pywws,2013-02-15 12:45:00,
2013-02-15 07:51:00,34.5,26.1,29.98,West,270,1.6,3.8,71,0.00,,,0.00,pywws,2013-02-15 12:51:00,
2013-02-15 07:56:00,34.5,25.8,29.98,SW,225,1.6,3.8,70,0.00,,,0.00,pywws,2013-02-15 12:56:00,
2013-02-15 08:02:00,34.9,25.8,29.98,West,270,0.7,0.7,69,0.00,,,0.00,pywws,2013-02-15 13:02:00,
2013-02-15 08:08:00,35.1,25.9,29.99,North,-999,0.0,0.7,69,0.00,,,0.00,pywws,2013-02-15 13:08:00,
2013-02-15 08:13:00,34.9,25.4,29.99,NW,315,0.7,3.1,68,0.00,,,0.00,pywws,2013-02-15 13:13:00,
2013-02-15 08:19:00,35.2,26.1,29.99,North,-999,0.0,0.7,69,0.00,,,0.00,pywws,2013-02-15 13:19:00,
2013-02-15 08:24:00,35.8,26.3,30.00,North,0,0.7,2.2,68,0.00,,,0.00,pywws,2013-02-15 13:24:00,
2013-02-15 08:30:00,36.1,26.3,30.00,West,270,3.1,5.4,67,0.00,,,0.00,pywws,2013-02-15 13:30:00,
2013-02-15 08:36:00,36.3,26.1,30.00,West,270,4.5,5.4,66,0.00,,,0.00,pywws,2013-02-15 13:36:00,
2013-02-15 08:41:00,36.7,26.4,30.00,South,180,0.7,2.2,66,0.00,,,0.00,pywws,2013-02-15 13:41:00,
2013-02-15 08:47:00,36.9,26.2,30.01,South,180,3.1,3.8,65,0.00,,,0.00,pywws,2013-02-15 13:47:00,
2013-02-15 08:52:00,36.9,26.2,30.01,West,270,1.6,3.1,65,0.00,,,0.00,pywws,2013-02-15 13:52:00,
2013-02-15 08:58:00,37.6,28.3,30.01,West,270,2.2,3.1,69,0.00,,,0.00,pywws,2013-02-15 13:58:00,
2013-02-15 09:04:00,38.7,29.0,30.01,SW,225,2.2,3.8,68,0.00,,,0.00,pywws,2013-02-15 14:04:00,
2013-02-15 09:09:00,39.7,29.0,30.01,NE,45,1.6,3.1,65,0.00,,,0.00,pywws,2013-02-15 14:09:00,
2013-02-15 09:15:00,41.4,30.1,30.01,North,0,1.6,4.5,64,0.00,,,0.00,pywws,2013-02-15 14:15:00,
2013-02-15 09:20:00,41.4,28.9,30.01,SW,225,2.2,3.8,61,0.00,,,0.00,pywws,2013-02-15 14:20:00,
2013-02-15 09:26:00,41.0,28.6,30.01,SW,225,0.7,1.6,61,0.00,,,0.00,pywws,2013-02-15 14:26:00,
2013-02-15 09:32:00,41.2,28.8,30.01,West,270,1.6,3.1,61,0.00,,,0.00,pywws,2013-02-15 14:32:00,
2013-02-15 09:37:00,41.4,28.9,30.01,NE,45,1.6,2.2,61,0.00,,,0.00,pywws,2013-02-15 14:37:00,
2013-02-15 09:43:00,42.3,29.4,30.01,North,0,1.6,2.2,60,0.00,,,0.00,pywws,2013-02-15 14:43:00,
2013-02-15 09:48:00,43.9,29.6,30.01,South,180,1.6,2.2,57,0.00,,,0.00,pywws,2013-02-15 14:48:00,
2013-02-15 09:54:00,45.0,28.9,30.01,NW,315,0.7,1.6,53,0.00,,,0.00,pywws,2013-02-15 14:54:00,
2013-02-15 10:00:00,45.5,28.9,30.01,North,0,2.2,3.8,52,0.00,,,0.00,pywws,2013-02-15 15:00:00,
2013-02-15 10:05:00,45.1,28.6,30.01,North,-999,0.0,0.7,52,0.00,,,0.00,pywws,2013-02-15 15:05:00,
2013-02-15 10:11:00,45.3,28.7,30.01,North,-999,0.0,1.6,52,0.00,,,0.00,pywws,2013-02-15 15:11:00,
2013-02-15 10:16:00,45.9,28.8,30.02,SW,225,3.8,5.4,51,0.00,,,0.00,pywws,2013-02-15 15:16:00,
2013-02-15 10:22:00,45.9,28.8,30.02,North,0,1.6,3.1,51,0.00,,,0.00,pywws,2013-02-15 15:22:00,
2013-02-15 10:28:00,46.2,29.1,30.01,West,270,1.6,3.1,51,0.00,,,0.00,pywws,2013-02-15 15:28:00,
2013-02-15 10:33:00,46.2,29.1,30.02,North,0,0.7,2.2,51,0.00,,,0.00,pywws,2013-02-15 15:33:00,
2013-02-15 10:39:00,47.8,30.1,30.02,North,0,1.6,2.2,50,0.00,,,0.00,pywws,2013-02-15 15:39:00,
2013-02-15 10:44:00,49.1,29.7,30.01,NW,315,3.8,4.5,47,0.00,,,0.00,pywws,2013-02-15 15:44:00,
2013-02-15 10:50:00,50.5,30.5,30.01,South,180,1.6,2.2,46,0.00,,,0.00,pywws,2013-02-15 15:50:00,
2013-02-15 10:56:00,51.4,30.3,30.01,West,270,2.2,3.8,44,0.00,,,0.00,pywws,2013-02-15 15:56:00,
2013-02-15 11:01:00,51.8,29.4,30.01,North,-999,0.0,0.7,42,0.00,,,0.00,pywws,2013-02-15 16:01:00,
2013-02-15 11:07:00,51.8,29.4,30.01,South,180,3.1,5.4,42,0.00,,,0.00,pywws,2013-02-15 16:07:00,
2013-02-15 11:12:00,51.6,29.9,30.01,SW,225,0.7,2.2,43,0.00,,,0.00,pywws,2013-02-15 16:12:00,
2013-02-15 11:18:00,50.0,28.4,30.01,NW,315,1.6,3.1,43,0.00,,,0.00,pywws,2013-02-15 16:18:00,
2013-02-15 11:24:00,48.9,29.1,30.01,WSW,248,3.1,4.5,46,0.00,,,0.00,pywws,2013-02-15 16:24:00,
2013-02-15 11:29:00,48.6,28.7,30.01,West,270,1.6,2.2,46,0.00,,,0.00,pywws,2013-02-15 16:29:00,
2013-02-15 11:35:00,49.6,29.7,30.00,South,180,1.6,2.2,46,0.00,,,0.00,pywws,2013-02-15 16:35:00,
2013-02-15 11:40:00,50.5,29.4,30.00,West,270,3.1,4.5,44,0.00,,,0.00,pywws,2013-02-15 16:40:00,
2013-02-15 11:46:00,50.5,29.4,30.00,SSE,158,1.6,3.8,44,0.00,,,0.00,pywws,2013-02-15 16:46:00,
2013-02-15 11:52:00,49.8,28.8,29.99,West,270,3.1,6.0,44,0.00,,,0.00,pywws,2013-02-15 16:52:00,
2013-02-15 11:57:00,48.0,28.8,29.99,NW,315,1.6,3.1,47,0.00,,,0.00,pywws,2013-02-15 16:57:00,
2013-02-15 12:03:00,48.6,28.7,29.98,SW,225,2.2,3.8,46,0.00,,,0.00,pywws,2013-02-15 17:03:00,
2013-02-15 12:08:00,49.3,29.4,29.98,West,270,3.8,6.9,46,0.00,,,0.00,pywws,2013-02-15 17:08:00,
2013-02-15 12:14:00,48.9,29.1,29.98,South,180,2.2,3.8,46,0.00,,,0.00,pywws,2013-02-15 17:14:00,
2013-02-15 12:20:00,49.8,29.9,29.98,SW,225,1.6,3.8,46,0.00,,,0.00,pywws,2013-02-15 17:20:00,
2013-02-15 12:25:00,50.5,29.4,29.98,West,270,1.6,3.1,44,0.00,,,0.00,pywws,2013-02-15 17:25:00,
2013-02-15 12:31:00,52.5,30.1,29.97,West,270,1.6,3.1,42,0.00,,,0.00,pywws,2013-02-15 17:31:00,
2013-02-15 12:36:00,53.2,29.5,29.98,South,180,2.2,3.8,40,0.00,,,0.00,pywws,2013-02-15 17:36:00,
2013-02-15 12:42:00,53.1,29.4,29.97,South,180,2.2,3.8,40,0.00,,,0.00,pywws,2013-02-15 17:42:00,
2013-02-15 12:48:00,53.4,28.5,29.96,SE,135,1.6,3.8,38,0.00,,,0.00,pywws,2013-02-15 17:48:00,
2013-02-15 12:53:00,55.6,29.7,29.96,SW,225,0.7,2.2,37,0.00,,,0.00,pywws,2013-02-15 17:53:00,
2013-02-15 12:59:00,56.8,29.5,29.96,SW,225,1.6,3.1,35,0.00,,,0.00,pywws,2013-02-15 17:59:00,
2013-02-15 13:04:00,57.6,28.7,29.96,WSW,248,3.1,4.5,33,0.00,,,0.00,pywws,2013-02-15 18:04:00,
2013-02-15 13:10:00,57.4,28.5,29.96,NW,315,3.1,4.5,33,0.00,,,0.00,pywws,2013-02-15 18:10:00,
2013-02-15 13:16:00,57.4,27.8,29.96,West,270,3.1,4.5,32,0.00,,,0.00,pywws,2013-02-15 18:16:00,
2013-02-15 13:21:00,57.0,28.9,29.96,South,180,1.6,2.2,34,0.00,,,0.00,pywws,2013-02-15 18:21:00,
2013-02-15 13:27:00,58.8,29.8,29.95,South,180,1.6,3.8,33,0.00,,,0.00,pywws,2013-02-15 18:27:00,
2013-02-15 13:32:00,59.9,28.4,29.95,SE,135,2.2,3.8,30,0.00,,,0.00,pywws,2013-02-15 18:32:00,
2013-02-15 13:38:00,60.1,28.6,29.95,North,-999,0.0,0.7,30,0.00,,,0.00,pywws,2013-02-15 18:38:00,
2013-02-15 13:44:00,60.8,25.7,29.95,SW,225,2.2,3.8,26,0.00,,,0.00,pywws,2013-02-15 18:44:00,
2013-02-15 13:49:00,59.0,25.9,29.95,SE,135,2.2,4.5,28,0.00,,,0.00,pywws,2013-02-15 18:49:00,
2013-02-15 13:55:00,59.0,25.1,29.95,South,180,2.2,3.8,27,0.00,,,0.00,pywws,2013-02-15 18:55:00,
2013-02-15 14:00:00,58.8,25.8,29.95,North,0,1.6,3.8,28,0.00,,,0.00,pywws,2013-02-15 19:00:00,
2013-02-15 14:06:00,59.9,24.9,29.95,South,180,3.8,7.6,26,0.00,,,0.00,pywws,2013-02-15 19:06:00,
2013-02-15 14:12:00,59.0,24.2,29.95,North,0,0.7,2.2,26,0.00,,,0.00,pywws,2013-02-15 19:12:00,
2013-02-15 14:17:00,59.7,23.8,29.95,SW,225,3.8,5.4,25,0.00,,,0.00,pywws,2013-02-15 19:17:00,
2013-02-15 14:23:00,58.8,24.0,29.94,West,270,2.2,4.5,26,0.00,,,0.00,pywws,2013-02-15 19:23:00,
2013-02-15 14:28:00,57.7,22.2,29.94,NW,315,3.8,5.4,25,0.00,,,0.00,pywws,2013-02-15 19:28:00,
2013-02-15 14:34:00,56.7,22.2,29.94,SW,225,6.0,9.2,26,0.00,,,0.00,pywws,2013-02-15 19:34:00,
2013-02-15 14:40:00,56.7,23.9,29.94,North,0,3.1,6.0,28,0.00,,,0.00,pywws,2013-02-15 19:40:00,
2013-02-15 14:45:00,55.8,24.8,29.94,WSW,248,2.2,3.8,30,0.00,,,0.00,pywws,2013-02-15 19:45:00,
2013-02-15 14:51:00,54.5,24.5,29.94,WNW,292,1.6,4.5,31,0.00,,,0.00,pywws,2013-02-15 19:51:00,
2013-02-15 14:56:00,54.5,25.3,29.94,North,0,2.2,5.4,32,0.00,,,0.00,pywws,2013-02-15 19:56:00,
2013-02-15 15:02:00,54.5,25.3,29.94,NW,315,0.7,2.2,32,0.00,,,0.00,pywws,2013-02-15 20:02:00,
2013-02-15 15:08:00,54.3,25.1,29.93,West,270,3.1,5.4,32,0.00,,,0.00,pywws,2013-02-15 20:08:00,
2013-02-15 15:13:00,53.2,26.3,29.94,West,270,2.2,4.5,35,0.00,,,0.00,pywws,2013-02-15 20:13:00,
2013-02-15 15:19:00,52.5,25.7,29.94,NE,45,1.6,2.2,35,0.00,,,0.00,pywws,2013-02-15 20:19:00,
2013-02-15 15:24:00,52.5,26.3,29.93,West,270,4.5,11.4,36,0.00,,,0.00,pywws,2013-02-15 20:24:00,
2013-02-15 15:30:00,52.0,26.5,29.93,South,180,2.2,3.8,37,0.00,,,0.00,pywws,2013-02-15 20:30:00,
2013-02-15 15:36:00,52.0,26.5,29.93,NE,45,3.1,3.8,37,0.00,,,0.00,pywws,2013-02-15 20:36:00,
2013-02-15 15:41:00,52.2,26.7,29.93,South,180,0.7,2.2,37,0.00,,,0.00,pywws,2013-02-15 20:41:00,
2013-02-15 15:47:00,51.8,25.7,29.93,West,270,3.1,4.5,36,0.00,,,0.00,pywws,2013-02-15 20:47:00,
2013-02-15 15:52:00,51.6,27.5,29.93,West,270,4.5,5.4,39,0.00,,,0.00,pywws,2013-02-15 20:52:00,
2013-02-15 15:58:00,51.8,26.4,29.93,SW,225,0.7,2.2,37,0.00,,,0.00,pywws,2013-02-15 20:58:00,
2013-02-15 16:04:00,52.0,27.2,29.93,NW,315,3.1,4.5,38,0.00,,,0.00,pywws,2013-02-15 21:04:00,
2013-02-15 16:09:00,52.3,26.2,29.93,NE,45,2.2,5.4,36,0.00,,,0.00,pywws,2013-02-15 21:09:00,
2013-02-15 16:15:00,52.0,26.5,29.93,SW,225,2.2,3.8,37,0.00,,,0.00,pywws,2013-02-15 21:15:00,
2013-02-15 16:20:00,51.8,25.7,29.94,NW,315,3.8,5.4,36,0.00,,,0.00,pywws,2013-02-15 21:20:00,
2013-02-15 16:26:00,52.2,25.3,29.94,WNW,292,2.2,3.1,35,0.00,,,0.00,pywws,2013-02-15 21:26:00,
2013-02-15 16:32:00,52.2,23.9,29.94,North,0,1.6,3.1,33,0.00,,,0.00,pywws,2013-02-15 21:32:00,
2013-02-15 16:37:00,52.0,25.9,29.94,NW,315,1.6,2.2,36,0.00,,,0.00,pywws,2013-02-15 21:37:00,
2013-02-15 16:43:00,51.3,26.5,29.94,North,-999,0.0,0.7,38,0.00,,,0.00,pywws,2013-02-15 21:43:00,
2013-02-15 16:48:00,50.7,26.7,29.95,West,270,0.7,1.6,39,0.00,,,0.00,pywws,2013-02-15 21:48:00,
2013-02-15 16:54:00,50.0,27.8,29.95,NW,315,2.2,5.4,42,0.00,,,0.00,pywws,2013-02-15 21:54:00,
2013-02-15 17:00:00,49.1,28.1,29.95,West,270,2.2,4.5,44,0.00,,,0.00,pywws,2013-02-15 22:00:00,
2013-02-15 17:05:00,48.4,28.0,29.95,North,-999,0.0,1.6,45,0.00,,,0.00,pywws,2013-02-15 22:05:00,
2013-02-15 17:11:00,47.7,28.9,29.95,NW,315,0.7,2.2,48,0.00,,,0.00,pywws,2013-02-15 22:11:00,
2013-02-15 17:16:00,47.1,29.0,29.95,East,90,0.7,1.6,49,0.00,,,0.00,pywws,2013-02-15 22:16:00,
2013-02-15 17:22:00,46.6,28.9,29.95,East,90,0.7,1.6,50,0.00,,,0.00,pywws,2013-02-15 22:22:00,
2013-02-15 17:28:00,46.0,28.9,29.95,North,-999,0.0,1.6,51,0.00,,,0.00,pywws,2013-02-15 22:28:00,
2013-02-15 17:33:00,45.5,28.9,29.95,South,180,0.7,1.6,52,0.00,,,0.00,pywws,2013-02-15 22:33:00,
2013-02-15 17:39:00,45.1,29.0,29.95,SE,135,0.7,1.6,53,0.00,,,0.00,pywws,2013-02-15 22:39:00,
2013-02-15 17:44:00,44.8,29.2,29.95,SE,135,0.7,1.6,54,0.00,,,0.00,pywws,2013-02-15 22:44:00,
2013-02-15 17:50:00,44.6,29.9,29.95,South,180,0.7,1.6,56,0.00,,,0.00,pywws,2013-02-15 22:50:00,
2013-02-15 17:56:00,44.2,31.2,29.95,South,180,0.7,1.6,60,0.00,,,0.00,pywws,2013-02-15 22:56:00,
2013-02-15 18:01:00,44.1,31.5,29.95,SE,135,1.6,2.2,61,0.00,,,0.00,pywws,2013-02-15 23:01:00,
2013-02-15 18:07:00,43.9,31.7,29.95,South,180,0.7,2.2,62,0.00,,,0.00,pywws,2013-02-15 23:07:00,
2013-02-15 18:12:00,43.7,31.9,29.95,East,90,0.7,1.6,63,0.00,,,0.00,pywws,2013-02-15 23:12:00,
2013-02-15 18:18:00,43.2,31.4,29.95,SE,135,0.7,2.2,63,0.00,,,0.00,pywws,2013-02-15 23:18:00,
2013-02-15 18:24:00,43.0,31.3,29.94,East,90,0.7,1.6,63,0.00,,,0.00,pywws,2013-02-15 23:24:00,
2013-02-15 18:29:00,42.6,31.7,29.95,North,-999,0.0,1.6,65,0.00,,,0.00,pywws,2013-02-15 23:29:00,
2013-02-15 18:35:00,42.3,31.3,29.95,NE,45,0.7,1.6,65,0.00,,,0.00,pywws,2013-02-15 23:35:00,
2013-02-15 18:40:00,42.3,31.7,29.95,NE,45,0.7,1.6,66,0.00,,,0.00,pywws,2013-02-15 23:40:00,
2013-02-15 18:46:00,42.1,31.6,29.95,NE,45,0.7,2.2,66,0.00,,,0.00,pywws,2013-02-15 23:46:00,
2013-02-15 18:52:00,42.1,31.9,29.94,East,90,0.7,1.6,67,0.00,,,0.00,pywws,2013-02-15 23:52:00,
2013-02-15 18:57:00,41.7,31.6,29.95,East,90,0.7,1.6,67,0.00,,,0.00,pywws,2013-02-15 23:57:00,
2013-02-15 19:03:00,41.4,31.2,29.95,South,180,1.6,2.2,67,0.00,,,0.00,pywws,2013-02-16 00:03:00,
2013-02-15 19:08:00,41.0,31.3,29.95,NE,45,0.7,1.6,68,0.00,,,0.00,pywws,2013-02-16 00:08:00,
2013-02-15 19:14:00,40.3,30.9,29.95,NE,45,1.6,3.1,69,0.00,,,0.00,pywws,2013-02-16 00:14:00,
2013-02-15 19:20:00,39.6,30.6,29.95,ENE,68,1.6,2.2,70,0.00,,,0.00,pywws,2013-02-16 00:20:00,
2013-02-15 19:25:00,39.6,30.9,29.95,East,90,1.6,2.2,71,0.00,,,0.00,pywws,2013-02-16 00:25:00,
2013-02-15 19:31:00,39.9,32.0,29.95,SE,135,1.6,2.2,73,0.00,,,0.00,pywws,2013-02-16 00:31:00,
2013-02-15 19:36:00,39.6,31.3,29.95,SE,135,0.7,1.6,72,0.00,,,0.00,pywws,2013-02-16 00:36:00,
2013-02-15 19:42:00,39.6,31.6,29.94,SE,135,0.7,1.6,73,0.00,,,0.00,pywws,2013-02-16 00:42:00,
2013-02-15 19:48:00,40.1,32.2,29.95,North,-999,0.0,1.6,73,0.00,,,0.00,pywws,2013-02-16 00:48:00,
2013-02-15 19:53:00,40.1,31.1,29.95,East,90,0.7,1.6,70,0.00,,,0.00,pywws,2013-02-16 00:53:00,
2013-02-15 19:59:00,39.9,30.9,29.94,North,-999,0.0,1.6,70,0.00,,,0.00,pywws,2013-02-16 00:59:00,
2013-02-15 20:04:00,39.2,30.3,29.96,North,-999,0.0,0.0,70,0.00,,,0.00,pywws,2013-02-16 01:04:00,
2013-02-15 20:10:00,38.7,30.1,29.95,NE,45,0.7,1.6,71,0.00,,,0.00,pywws,2013-02-16 01:10:00,
2013-02-15 20:16:00,38.7,30.4,29.96,North,-999,0.0,0.7,72,0.00,,,0.00,pywws,2013-02-16 01:16:00,
2013-02-15 20:21:00,38.7,30.4,29.96,North,-999,0.0,0.7,72,0.00,,,0.00,pywws,2013-02-16 01:21:00,
2013-02-15 20:27:00,39.0,30.8,29.95,NE,45,0.7,1.6,72,0.00,,,0.00,pywws,2013-02-16 01:27:00,
2013-02-15 20:32:00,39.6,30.6,29.95,North,-999,0.0,0.0,70,0.00,,,0.00,pywws,2013-02-16 01:32:00,
2013-02-15 20:38:00,39.6,29.5,29.95,East,90,0.7,1.6,67,0.00,,,0.00,pywws,2013-02-16 01:38:00,
2013-02-15 20:44:00,40.1,29.7,29.95,SE,135,0.7,2.2,66,0.00,,,0.00,pywws,2013-02-16 01:44:00,
2013-02-15 20:49:00,40.1,29.7,29.95,SE,135,0.7,1.6,66,0.00,,,0.00,pywws,2013-02-16 01:49:00,
2013-02-15 20:55:00,40.5,29.3,29.95,North,-999,0.0,1.6,64,0.00,,,0.00,pywws,2013-02-16 01:55:00,
2013-02-15 21:00:00,39.9,28.7,29.95,NE,45,0.7,1.6,64,0.00,,,0.00,pywws,2013-02-16 02:00:00,
2013-02-15 21:06:00,39.9,28.7,29.95,NE,45,0.7,1.6,64,0.00,,,0.00,pywws,2013-02-16 02:06:00,
2013-02-15 21:12:00,38.7,27.9,29.95,East,90,0.7,1.6,65,0.00,,,0.00,pywws,2013-02-16 02:12:00,
2013-02-15 21:17:00,38.7,27.9,29.95,East,90,0.7,1.6,65,0.00,,,0.00,pywws,2013-02-16 02:17:00,
2013-02-15 21:23:00,38.7,27.9,29.95,East,90,0.7,2.2,65,0.00,,,0.00,pywws,2013-02-16 02:23:00,
2013-02-15 21:28:00,38.7,27.9,29.95,East,90,0.7,1.6,65,0.00,,,0.00,pywws,2013-02-16 02:28:00,
2013-02-15 21:34:00,39.2,28.1,29.95,North,-999,0.0,0.0,64,0.00,,,0.00,pywws,2013-02-16 02:34:00,
2013-02-15 21:40:00,39.4,27.5,29.95,NE,45,0.7,1.6,62,0.00,,,0.00,pywws,2013-02-16 02:40:00,
2013-02-15 21:45:00,39.0,27.9,29.95,NE,45,0.7,1.6,64,0.00,,,0.00,pywws,2013-02-16 02:45:00,
2013-02-15 21:51:00,38.3,27.6,29.95,East,90,0.7,1.6,65,0.00,,,0.00,pywws,2013-02-16 02:51:00,
2013-02-15 21:56:00,38.7,27.9,29.95,SE,135,0.7,1.6,65,0.00,,,0.00,pywws,2013-02-16 02:56:00,
2013-02-15 22:02:00,39.2,29.2,29.95,East,90,0.7,2.2,67,0.00,,,0.00,pywws,2013-02-16 03:02:00,
2013-02-15 22:08:00,38.5,29.2,29.95,NE,45,0.7,1.6,69,0.00,,,0.00,pywws,2013-02-16 03:08:00,
2013-02-15 22:13:00,37.8,28.5,29.96,North,-999,0.0,0.0,69,0.00,,,0.00,pywws,2013-02-16 03:13:00,
2013-02-15 22:19:00,37.6,28.3,29.96,North,-999,0.0,0.0,69,0.00,,,0.00,pywws,2013-02-16 03:19:00,
2013-02-15 22:24:00,37.4,28.2,29.96,West,270,0.7,1.6,69,0.00,,,0.00,pywws,2013-02-16 03:24:00,
2013-02-15 22:30:00,37.4,28.9,29.96,NE,45,0.7,1.6,71,0.00,,,0.00,pywws,2013-02-16 03:30:00,
2013-02-15 22:36:00,37.2,26.9,29.96,West,270,0.7,2.2,66,0.00,,,0.00,pywws,2013-02-16 03:36:00,
2013-02-15 22:41:00,36.9,26.9,29.96,NE,45,1.6,2.2,67,0.00,,,0.00,pywws,2013-02-16 03:41:00,
2013-02-15 22:47:00,37.0,26.4,29.96,NW,315,0.7,2.2,65,0.00,,,0.00,pywws,2013-02-16 03:47:00,
2013-02-15 22:52:00,37.2,25.4,29.96,North,0,2.2,3.8,62,0.00,,,0.00,pywws,2013-02-16 03:52:00,
2013-02-15 22:58:00,37.8,27.1,29.96,North,0,1.6,1.6,65,0.00,,,0.00,pywws,2013-02-16 03:58:00,
2013-02-15 23:04:00,37.8,27.1,29.97,North,0,1.6,2.2,65,0.00,,,0.00,pywws,2013-02-16 04:04:00,
2013-02-15 23:09:00,37.9,27.2,29.98,NW,315,1.6,3.1,65,0.00,,,0.00,pywws,2013-02-16 04:09:00,
2013-02-15 23:15:00,38.1,27.4,29.98,North,0,3.8,7.6,65,0.00,,,0.00,pywws,2013-02-16 04:15:00,
2013-02-15 23:20:00,38.3,27.6,29.98,North,0,2.2,3.8,65,0.00,,,0.00,pywws,2013-02-16 04:20:00,
2013-02-15 23:26:00,38.1,27.8,29.98,NW,315,4.5,6.0,66,0.00,,,0.00,pywws,2013-02-16 04:26:00,
2013-02-15 23:32:00,37.6,28.3,29.98,NW,315,3.8,6.9,69,0.00,,,0.00,pywws,2013-02-16 04:32:00,
2013-02-15 23:37:00,36.9,27.7,29.98,NNW,338,2.2,3.8,69,0.00,,,0.00,pywws,2013-02-16 04:37:00,
2013-02-15 23:43:00,36.1,28.0,29.98,North,0,1.6,3.1,72,0.00,,,0.00,pywws,2013-02-16 04:43:00,
2013-02-15 23:48:00,35.8,28.3,29.98,North,0,2.2,3.8,74,0.00,,,0.00,pywws,2013-02-16 04:48:00,
2013-02-15 23:54:00,35.4,28.6,29.97,North,0,0.7,2.2,76,0.00,,,0.00,pywws,2013-02-16 04:54:00,